Time;durP1;ratioP1;P1;durP2;ratioP2;P2;SDS_P1;SDS_P2;PMS_P1;PMS_P2;Temp;Humidity;BMP_temperature;BMP_pressure;BME280_temperature;BME280_humidity;BME280_pressure;Samples;Min_cycle;Max_cycle;Signal;HPM_P1;HPM_P2
2022/08/14 00:00:00;;;;;;;3.87;3.57;;;26.60;36.90;;;;;;5075250;28;20476;-70
2022/08/14 00:02:28;;;;;;;3.80;3.50;;;26.50;36.90;;;;;;5075609;28;20474;-70
2022/08/14 00:04:55;;;;;;;3.90;3.50;;;26.50;37.10;;;;;;5075250;28;20947;-70
2022/08/14 00:07:22;;;;;;;5.00;4.20;;;26.50;37.20;;;;;;5075669;28;20453;-70
2022/08/14 00:09:49;;;;;;;4.80;4.27;;;26.40;37.40;;;;;;5075313;28;20813;-70
2022/08/14 00:12:15;;;;;;;5.00;3.83;;;26.40;37.50;;;;;;5075271;28;20457;-70
2022/08/14 00:14:42;;;;;;;4.27;3.97;;;26.30;37.60;;;;;;5075158;28;20453;-70
2022/08/14 00:17:09;;;;;;;5.27;4.40;;;26.20;37.80;;;;;;5075673;28;20451;-70
2022/08/14 00:19:37;;;;;;;4.83;4.37;;;26.20;38.00;;;;;;5076954;28;20834;-70
2022/08/14 00:22:04;;;;;;;4.20;3.90;;;26.20;38.10;;;;;;5075125;28;20468;-70
2022/08/14 00:24:31;;;;;;;4.17;3.77;;;26.10;38.30;;;;;;5074808;28;20453;-70
2022/08/14 00:26:59;;;;;;;5.73;4.30;;;26.10;38.50;;;;;;5074015;28;20479;-70
2022/08/14 00:29:26;;;;;;;4.60;4.20;;;26.00;38.50;;;;;;5075008;28;20535;-71
2022/08/14 00:31:54;;;;;;;5.30;3.87;;;26.00;38.70;;;;;;5075349;28;20480;-70
2022/08/14 00:34:21;;;;;;;5.77;4.00;;;26.00;39.00;;;;;;5074919;28;20448;-70
2022/08/14 00:36:49;;;;;;;4.77;3.97;;;25.90;39.20;;;;;;5075297;28;20437;-70
2022/08/14 00:39:17;;;;;;;5.10;4.70;;;25.90;39.40;;;;;;5076016;28;20870;-70
2022/08/14 00:41:44;;;;;;;4.70;4.40;;;25.90;39.70;;;;;;5075241;28;20472;-70
2022/08/14 00:44:13;;;;;;;4.00;3.70;;;25.90;39.90;;;;;;5075189;28;20455;-70
2022/08/14 00:46:40;;;;;;;4.40;4.10;;;25.90;40.00;;;;;;5075520;28;20445;-70
2022/08/14 00:49:11;;;;;;;4.73;4.03;;;25.80;40.00;;;;;;5074932;28;20479;-70
2022/08/14 00:51:38;;;;;;;4.33;3.70;;;25.80;40.10;;;;;;5075295;28;20480;-70
2022/08/14 00:54:06;;;;;;;4.60;4.20;;;25.80;40.10;;;;;;5075020;28;20444;-70
2022/08/14 00:56:33;;;;;;;4.50;4.20;;;25.90;40.10;;;;;;5074875;28;20460;-70
2022/08/14 00:59:00;;;;;;;5.87;4.57;;;25.90;40.00;;;;;;5074510;28;20494;-70
2022/08/14 01:01:28;;;;;;;4.93;4.43;;;25.90;39.70;;;;;;5074666;28;20468;-70
2022/08/14 01:03:57;;;;;;;5.63;5.00;;;25.90;39.60;;;;;;5074332;28;20465;-70
2022/08/14 01:06:26;;;;;;;6.40;4.50;;;25.90;39.70;;;;;;5074575;28;20475;-70
2022/08/14 01:08:54;;;;;;;5.20;4.70;;;26.00;39.70;;;;;;5074177;28;20823;-70
2022/08/14 01:11:23;;;;;;;5.20;4.80;;;26.00;39.60;;;;;;5074829;28;20559;-70
2022/08/14 01:13:51;;;;;;;4.80;4.47;;;25.90;39.40;;;;;;5074276;28;20445;-70
2022/08/14 01:16:19;;;;;;;6.37;5.00;;;25.90;40.10;;;;;;5073939;28;21013;-70
2022/08/14 01:21:34;;;;;;;5.53;5.03;;;25.90;40.00;;;;;;5074165;28;20437;-70
2022/08/14 01:24:01;;;;;;;4.90;4.50;;;25.90;40.30;;;;;;5073947;28;20441;-70
2022/08/14 01:26:29;;;;;;;5.20;4.90;;;25.80;40.20;;;;;;5073915;28;20448;-70
2022/08/14 01:28:58;;;;;;;5.00;4.60;;;25.90;40.50;;;;;;5073740;28;20452;-70
2022/08/14 01:31:27;;;;;;;4.93;4.53;;;25.90;40.70;;;;;;5073566;28;20984;-70
2022/08/14 01:33:57;;;;;;;6.43;4.80;;;25.90;40.80;;;;;;5074853;28;20443;-71
2022/08/14 01:36:25;;;;;;;4.40;4.00;;;25.90;41.00;;;;;;5075442;28;20448;-71
2022/08/14 01:38:56;;;;;;;5.60;5.10;;;25.90;41.10;;;;;;5073973;28;20488;-71
2022/08/14 01:41:26;;;;;;;5.37;4.97;;;25.90;41.20;;;;;;5074294;28;20530;-71
2022/08/14 01:43:59;;;;;;;4.90;4.60;;;25.90;41.30;;;;;;5073970;28;20858;-71
2022/08/14 01:46:28;;;;;;;5.17;4.77;;;25.90;41.40;;;;;;5073856;28;20445;-71
2022/08/14 01:48:56;;;;;;;5.37;4.30;;;25.80;41.60;;;;;;5073669;28;20444;-71
2022/08/14 01:51:25;;;;;;;5.17;4.77;;;25.80;41.70;;;;;;5074290;28;20511;-71
2022/08/14 01:53:55;;;;;;;6.60;5.33;;;25.80;41.90;;;;;;5073329;28;20438;-70
2022/08/14 01:56:32;;;;;;;4.97;4.67;;;25.80;42.10;;;;;;5073490;28;20431;-71
2022/08/14 01:58:59;;;;;;;6.73;4.53;;;25.70;42.20;;;;;;5074178;28;21117;-71
2022/08/14 02:01:26;;;;;;;5.20;4.70;;;25.70;42.30;;;;;;5074553;28;20473;-71
2022/08/14 02:03:53;;;;;;;4.77;4.47;;;25.70;42.50;;;;;;5073585;28;20487;-71
2022/08/14 02:06:20;;;;;;;7.33;5.17;;;25.60;42.60;;;;;;5073734;28;20519;-71
2022/08/14 02:08:47;;;;;;;5.07;4.70;;;25.60;42.80;;;;;;5074031;28;20430;-70
2022/08/14 02:11:21;;;;;;;5.53;5.17;;;25.60;42.80;;;;;;5073938;28;20456;-70
2022/08/14 02:13:53;;;;;;;6.33;5.20;;;25.50;43.40;;;;;;5073598;28;20440;-70
2022/08/14 02:16:24;;;;;;;5.97;5.47;;;25.50;42.50;;;;;;5073522;28;20923;-70
2022/08/14 02:18:52;;;;;;;4.80;4.50;;;25.50;42.50;;;;;;5073425;28;20504;-70
2022/08/14 02:21:19;;;;;;;5.70;5.20;;;25.50;42.40;;;;;;5073112;28;20991;-70
2022/08/14 02:23:47;;;;;;;5.33;4.93;;;25.50;42.70;;;;;;5073495;28;20441;-70
2022/08/14 02:26:18;;;;;;;6.60;5.70;;;25.40;43.10;;;;;;5073209;28;20460;-70
2022/08/14 02:28:46;;;;;;;6.10;5.70;;;25.50;43.20;;;;;;5073651;28;20433;-70
2022/08/14 02:31:14;;;;;;;7.13;6.43;;;25.50;43.40;;;;;;5073115;28;20492;-70
2022/08/14 02:33:41;;;;;;;6.90;6.27;;;25.50;43.40;;;;;;5073321;28;20948;-71
2022/08/14 02:36:09;;;;;;;7.83;7.13;;;25.50;43.70;;;;;;5073347;28;20460;-71
2022/08/14 02:38:37;;;;;;;7.53;6.70;;;25.50;43.90;;;;;;5073306;28;20483;-71
2022/08/14 02:41:07;;;;;;;6.67;6.07;;;25.40;44.10;;;;;;5073403;28;20470;-70
2022/08/14 02:43:37;;;;;;;6.83;6.30;;;25.40;44.10;;;;;;5073238;28;20448;-71
2022/08/14 02:46:07;;;;;;;7.80;6.40;;;25.40;44.40;;;;;;5073314;28;20460;-71
2022/08/14 02:48:35;;;;;;;6.70;6.30;;;25.40;44.30;;;;;;5073564;28;20449;-71
2022/08/14 02:51:04;;;;;;;7.30;6.70;;;25.30;44.70;;;;;;5075348;28;20468;-71
2022/08/14 02:53:31;;;;;;;9.40;6.23;;;25.30;45.10;;;;;;5077065;28;20433;-71
2022/08/14 02:55:59;;;;;;;7.20;6.70;;;25.30;45.50;;;;;;5076703;28;20453;-70
2022/08/14 02:58:26;;;;;;;7.93;7.23;;;25.30;45.50;;;;;;5076946;28;20453;-71
2022/08/14 03:00:54;;;;;;;10.70;7.00;;;25.20;45.50;;;;;;5076427;28;20979;-71
2022/08/14 03:03:22;;;;;;;6.03;5.63;;;25.20;45.60;;;;;;5076767;28;20454;-71
2022/08/14 03:05:51;;;;;;;7.47;6.87;;;25.20;45.80;;;;;;5076577;28;20489;-71
2022/08/14 03:08:18;;;;;;;7.20;6.67;;;25.10;46.10;;;;;;5076773;28;20502;-71
2022/08/14 03:10:46;;;;;;;7.27;6.77;;;25.10;46.20;;;;;;5076508;28;20473;-70
2022/08/14 03:13:13;;;;;;;7.43;6.80;;;25.10;46.10;;;;;;5076839;28;20426;-70
2022/08/14 03:15:41;;;;;;;6.57;5.97;;;25.10;46.30;;;;;;5076574;28;20455;-70
2022/08/14 03:18:12;;;;;;;6.80;6.30;;;25.10;46.20;;;;;;5075984;28;20816;-71
2022/08/14 03:20:39;;;;;;;7.37;6.73;;;25.10;46.30;;;;;;5076322;28;20495;-71
2022/08/14 03:23:06;;;;;;;7.10;6.50;;;25.10;46.20;;;;;;5076414;28;20451;-70
2022/08/14 03:25:34;;;;;;;7.00;6.20;;;25.10;46.10;;;;;;5074925;28;20956;-71
2022/08/14 03:28:05;;;;;;;6.80;6.30;;;25.20;46.30;;;;;;5076340;28;20457;-71
2022/08/14 03:30:34;;;;;;;7.60;7.00;;;25.20;46.40;;;;;;5076930;28;20512;-71
2022/08/14 03:33:02;;;;;;;8.30;7.40;;;25.20;46.30;;;;;;5075989;28;20469;-71
2022/08/14 03:35:32;;;;;;;7.30;6.60;;;25.20;46.10;;;;;;5076196;28;20540;-71
2022/08/14 03:38:07;;;;;;;7.37;6.77;;;25.20;46.00;;;;;;5076053;28;20890;-70
2022/08/14 03:40:37;;;;;;;7.70;7.13;;;25.30;46.40;;;;;;5076269;28;20480;-70
2022/08/14 03:43:04;;;;;;;7.77;7.07;;;25.30;46.40;;;;;;5075780;28;20478;-70
2022/08/14 03:45:31;;;;;;;7.10;6.50;;;25.30;46.60;;;;;;5076198;28;20445;-70
2022/08/14 03:47:59;;;;;;;7.37;6.87;;;25.20;46.60;;;;;;5076022;28;20445;-70
2022/08/14 03:50:26;;;;;;;7.13;6.63;;;25.20;46.80;;;;;;5076191;28;20468;-70
2022/08/14 03:52:55;;;;;;;7.37;6.77;;;25.10;46.30;;;;;;5075795;28;20456;-70
2022/08/14 03:55:22;;;;;;;7.07;6.57;;;25.10;46.70;;;;;;5075238;28;20884;-70
2022/08/14 03:57:49;;;;;;;7.83;7.13;;;25.10;46.90;;;;;;5075626;28;20449;-70
2022/08/14 04:00:16;;;;;;;8.80;8.10;;;25.10;47.10;;;;;;5075572;28;20491;-70
2022/08/14 04:02:43;;;;;;;9.70;7.50;;;25.10;47.10;;;;;;5074165;28;20453;-70
2022/08/14 04:05:11;;;;;;;7.63;7.13;;;25.10;47.20;;;;;;5074942;28;20900;-70
2022/08/14 04:07:38;;;;;;;7.90;7.13;;;25.10;47.40;;;;;;5075282;28;20801;-70
2022/08/14 04:10:08;;;;;;;7.47;6.87;;;25.10;47.30;;;;;;5075466;28;20472;-70
2022/08/14 04:12:36;;;;;;;8.50;7.70;;;25.10;47.60;;;;;;5075651;28;20457;-70
2022/08/14 04:15:04;;;;;;;8.53;7.70;;;25.00;47.50;;;;;;5075491;28;20543;-70
2022/08/14 04:17:32;;;;;;;8.20;7.70;;;25.00;47.70;;;;;;5075412;28;20457;-70
2022/08/14 04:20:05;;;;;;;8.07;7.40;;;25.00;47.90;;;;;;5075040;28;20542;-70
2022/08/14 04:22:32;;;;;;;7.60;7.00;;;24.90;47.90;;;;;;5075761;28;20491;-70
2022/08/14 04:25:00;;;;;;;7.70;7.10;;;24.90;47.90;;;;;;5074841;28;20453;-70
2022/08/14 04:27:29;;;;;;;7.73;7.13;;;24.90;48.00;;;;;;5074510;28;20966;-70
2022/08/14 04:29:56;;;;;;;7.83;7.23;;;24.90;48.10;;;;;;5074982;28;20444;-70
2022/08/14 04:32:25;;;;;;;7.73;7.23;;;24.90;48.20;;;;;;5074966;28;20499;-70
2022/08/14 04:34:52;;;;;;;6.93;6.43;;;24.90;48.30;;;;;;5074445;28;20974;-70
2022/08/14 04:45:39;;;;;;;7.53;6.90;;;24.70;48.70;;;;;;5074480;28;20408;-70
2022/08/14 04:48:13;;;;;;;6.93;6.43;;;24.70;48.90;;;;;;5074711;28;20457;-70
2022/08/14 04:50:41;;;;;;;7.60;7.00;;;24.70;49.10;;;;;;5074646;28;20460;-70
2022/08/14 04:53:09;;;;;;;8.87;7.37;;;24.70;49.20;;;;;;5074481;28;20488;-70
2022/08/14 04:55:36;;;;;;;8.30;7.60;;;24.70;49.30;;;;;;5075343;28;20455;-70
2022/08/14 04:58:05;;;;;;;7.67;7.07;;;24.60;49.50;;;;;;5074566;28;20539;-70
2022/08/14 05:00:33;;;;;;;8.07;7.50;;;24.60;49.70;;;;;;5074339;28;20502;-70
2022/08/14 05:03:02;;;;;;;7.60;6.90;;;24.60;49.60;;;;;;5074181;28;20480;-70
2022/08/14 05:05:29;;;;;;;8.27;7.20;;;24.60;49.50;;;;;;5074277;28;20453;-70
2022/08/14 05:07:56;;;;;;;7.33;6.63;;;24.50;48.90;;;;;;5074088;28;20444;-70
2022/08/14 05:10:23;;;;;;;8.10;7.50;;;24.60;48.80;;;;;;5074531;28;20461;-70
2022/08/14 05:12:50;;;;;;;7.87;7.20;;;24.60;49.20;;;;;;5073637;28;20464;-70
2022/08/14 05:15:20;;;;;;;7.87;7.27;;;24.60;49.40;;;;;;5074277;28;20456;-70
2022/08/14 05:17:48;;;;;;;8.80;8.00;;;24.60;49.50;;;;;;5074374;28;20492;-70
2022/08/14 05:20:15;;;;;;;10.57;7.90;;;24.70;49.70;;;;;;5073802;28;20492;-70
2022/08/14 05:22:41;;;;;;;8.00;7.40;;;24.70;49.70;;;;;;5074396;28;20808;-71
2022/08/14 05:25:08;;;;;;;8.47;7.87;;;24.70;49.80;;;;;;5074233;28;20974;-70
2022/08/14 05:27:35;;;;;;;8.20;7.60;;;24.70;48.90;;;;;;5074801;28;20438;-71
2022/08/14 05:30:06;;;;;;;8.07;7.37;;;24.70;48.40;;;;;;5074547;28;20445;-71
2022/08/14 05:32:34;;;;;;;8.53;7.83;;;24.70;48.70;;;;;;5074667;28;20433;-70
2022/08/14 05:35:01;;;;;;;7.90;7.20;;;24.70;48.70;;;;;;5075092;28;20437;-71
2022/08/14 05:37:29;;;;;;;8.53;7.90;;;24.80;48.90;;;;;;5074590;28;20453;-71
2022/08/14 05:39:57;;;;;;;7.87;7.27;;;24.80;49.00;;;;;;5076162;28;20516;-71
2022/08/14 05:42:23;;;;;;;8.70;7.83;;;24.90;49.00;;;;;;5086148;28;20433;-67
2022/08/14 05:44:50;;;;;;;7.63;6.93;;;24.90;49.20;;;;;;5073423;28;20448;-67
2022/08/14 05:47:17;;;;;;;7.70;6.83;;;24.90;49.30;;;;;;5073709;28;20447;-68
2022/08/14 05:49:47;;;;;;;8.23;7.50;;;25.00;48.90;;;;;;5073420;28;20441;-68
2022/08/14 05:52:13;;;;;;;7.47;6.60;;;25.00;49.10;;;;;;5073653;28;20476;-68
2022/08/14 05:54:41;;;;;;;8.60;7.90;;;25.00;48.20;;;;;;5073534;28;20452;-68
2022/08/14 05:57:08;;;;;;;7.53;6.87;;;25.00;47.80;;;;;;5073399;28;20429;-67
2022/08/14 05:59:35;;;;;;;7.27;6.57;;;25.10;48.40;;;;;;5073919;28;20483;-67
2022/08/14 06:02:02;;;;;;;7.73;7.03;;;25.10;48.30;;;;;;5075112;28;20473;-68
2022/08/14 06:04:29;;;;;;;7.60;7.00;;;25.20;48.10;;;;;;5073814;28;20459;-68
2022/08/14 06:06:57;;;;;;;8.03;7.27;;;25.30;48.30;;;;;;5073807;28;20437;-68
2022/08/14 06:09:23;;;;;;;8.10;7.50;;;25.30;48.20;;;;;;5074112;28;20452;-68
2022/08/14 06:11:50;;;;;;;8.07;7.40;;;25.30;48.30;;;;;;5074533;28;20469;-68
2022/08/14 06:14:17;;;;;;;8.87;8.20;;;25.40;48.40;;;;;;5074444;28;20433;-68
2022/08/14 06:16:46;;;;;;;8.90;8.23;;;25.40;48.40;;;;;;5074473;28;20441;-68
2022/08/14 06:19:13;;;;;;;8.40;7.60;;;25.50;47.90;;;;;;5074614;28;20452;-68
2022/08/14 06:21:40;;;;;;;7.73;7.03;;;25.50;48.20;;;;;;5076151;28;20464;-68
2022/08/14 06:24:08;;;;;;;8.10;7.40;;;25.60;48.00;;;;;;5075122;28;20424;-67
2022/08/14 06:26:35;;;;;;;9.60;8.30;;;25.60;48.00;;;;;;5077627;28;20456;-68
2022/08/14 06:29:02;;;;;;;9.03;8.33;;;25.70;47.70;;;;;;5078721;28;20431;-68
2022/08/14 06:31:29;;;;;;;8.63;7.83;;;25.80;47.70;;;;;;5078646;28;20457;-68
2022/08/14 06:33:56;;;;;;;8.30;7.60;;;25.90;47.60;;;;;;5078578;28;20449;-67
2022/08/14 06:36:22;;;;;;;7.93;7.27;;;25.90;47.30;;;;;;5079115;28;20490;-68
2022/08/14 06:38:51;;;;;;;10.47;7.13;;;25.90;47.40;;;;;;5078499;28;20452;-67
2022/08/14 06:41:23;;;;;;;8.20;7.50;;;26.00;47.30;;;;;;5083106;28;20492;-74
2022/08/14 06:43:50;;;;;;;8.60;7.70;;;26.10;47.20;;;;;;5079884;28;20524;-68
2022/08/14 06:46:17;;;;;;;8.27;7.60;;;26.20;47.20;;;;;;5078942;28;20978;-67
2022/08/14 06:48:44;;;;;;;8.40;7.60;;;26.20;46.80;;;;;;5078863;28;20441;-68
2022/08/14 06:51:11;;;;;;;7.97;7.27;;;26.20;46.80;;;;;;5077019;28;20468;-68
2022/08/14 06:53:38;;;;;;;8.03;7.30;;;26.40;46.70;;;;;;5079351;28;20448;-68
2022/08/14 06:56:05;;;;;;;8.23;7.33;;;26.50;46.40;;;;;;5080675;28;20452;-68
2022/08/14 06:58:33;;;;;;;7.87;7.20;;;26.60;46.40;;;;;;5084889;28;20810;-68
2022/08/14 07:06:30;;;;;;;8.37;7.67;;;26.90;45.80;;;;;;5083011;28;20489;-67
2022/08/14 07:08:56;;;;;;;7.57;7.03;;;27.10;45.60;;;;;;5081744;28;20453;-68
2022/08/14 07:11:23;;;;;;;8.13;7.53;;;27.20;45.50;;;;;;5078051;28;20540;-68
2022/08/14 07:13:51;;;;;;;8.27;7.53;;;27.30;45.10;;;;;;5075666;28;20931;-68
2022/08/14 07:16:18;;;;;;;7.33;6.73;;;27.40;44.80;;;;;;5075789;28;20440;-68
2022/08/14 07:18:45;;;;;;;8.63;7.83;;;27.50;44.50;;;;;;5075799;28;20460;-68
2022/08/14 07:21:12;;;;;;;8.00;7.40;;;27.70;44.30;;;;;;5075606;28;20520;-68
2022/08/14 07:23:39;;;;;;;7.67;6.97;;;27.80;44.40;;;;;;5075633;28;20442;-68
2022/08/14 07:26:06;;;;;;;8.13;7.43;;;27.90;43.80;;;;;;5075625;28;20445;-67
2022/08/14 07:28:34;;;;;;;7.60;7.13;;;28.10;43.70;;;;;;5075604;28;20453;-68
2022/08/14 07:31:06;;;;;;;6.90;6.50;;;28.20;43.10;;;;;;5075464;28;20481;-66
2022/08/14 07:33:36;;;;;;;7.93;7.30;;;28.30;41.60;;;;;;5075199;28;20436;-66
2022/08/14 07:36:05;;;;;;;11.83;8.07;;;28.50;40.90;;;;;;5074825;28;20453;-67
2022/08/14 07:38:32;;;;;;;8.30;7.60;;;28.60;41.20;;;;;;5075928;28;20441;-66
2022/08/14 07:40:58;;;;;;;8.33;7.60;;;28.80;41.50;;;;;;5076944;28;20864;-66
2022/08/14 07:43:26;;;;;;;7.77;7.13;;;28.90;41.20;;;;;;5075507;28;20429;-67
2022/08/14 07:45:53;;;;;;;7.17;6.67;;;29.10;41.10;;;;;;5075425;28;20441;-66
2022/08/14 07:48:22;;;;;;;8.07;7.57;;;29.30;40.90;;;;;;5075303;28;20457;-67
2022/08/14 07:50:49;;;;;;;7.73;7.13;;;29.40;40.70;;;;;;5075206;28;20538;-66
2022/08/14 07:53:17;;;;;;;9.10;7.53;;;29.50;40.40;;;;;;5075340;28;20560;-66
2022/08/14 07:55:45;;;;;;;7.90;7.40;;;29.60;40.20;;;;;;5075115;28;20444;-66
2022/08/14 07:58:12;;;;;;;9.03;8.23;;;29.70;40.00;;;;;;5075039;28;20487;-67
2022/08/14 08:00:39;;;;;;;8.53;7.63;;;29.80;39.90;;;;;;5074634;28;20485;-67
2022/08/14 08:03:09;;;;;;;9.03;8.33;;;30.00;39.90;;;;;;5074761;28;20472;-67
2022/08/14 08:05:38;;;;;;;8.70;8.00;;;30.00;39.70;;;;;;5074963;28;20874;-67
2022/08/14 08:08:06;;;;;;;8.17;7.63;;;30.10;39.30;;;;;;5074805;28;20425;-67
2022/08/14 08:10:33;;;;;;;8.57;7.97;;;30.10;39.10;;;;;;5074704;28;20465;-67
2022/08/14 08:13:03;;;;;;;7.70;7.10;;;30.30;39.30;;;;;;5074910;28;20457;-67
2022/08/14 08:15:32;;;;;;;8.50;7.90;;;30.30;39.50;;;;;;5074550;28;20440;-67
2022/08/14 08:18:00;;;;;;;7.80;7.10;;;30.20;39.40;;;;;;5074670;28;20440;-67
2022/08/14 08:20:27;;;;;;;7.80;7.30;;;30.30;39.40;;;;;;5074405;28;20492;-67
2022/08/14 08:22:57;;;;;;;8.07;7.33;;;30.30;39.40;;;;;;5074539;28;20437;-67
2022/08/14 08:25:24;;;;;;;7.80;7.20;;;30.30;39.30;;;;;;5074033;28;21038;-67
2022/08/14 08:27:56;;;;;;;8.27;7.67;;;30.40;39.20;;;;;;5074578;28;20441;-67
2022/08/14 08:30:22;;;;;;;9.53;8.83;;;30.40;39.30;;;;;;5074287;28;20461;-67
2022/08/14 08:32:52;;;;;;;7.80;6.97;;;30.60;38.90;;;;;;5073964;28;20934;-67
2022/08/14 08:35:20;;;;;;;7.20;6.80;;;30.70;38.80;;;;;;5074201;28;20448;-67
2022/08/14 08:37:47;;;;;;;8.67;7.87;;;31.00;38.50;;;;;;5073906;28;20437;-67
2022/08/14 08:40:24;;;;;;;7.57;6.93;;;31.20;38.20;;;;;;5074021;28;20448;-67
2022/08/14 08:42:52;;;;;;;8.57;7.87;;;31.40;37.90;;;;;;5073781;28;20932;-67
2022/08/14 08:45:19;;;;;;;7.97;7.37;;;31.60;37.20;;;;;;5073774;28;20483;-67
2022/08/14 08:47:47;;;;;;;7.82;7.22;;;31.80;36.90;;;;;;5072410;28;20435;-67
2022/08/14 08:50:19;;;;;;;7.63;7.10;;;32.00;36.60;;;;;;5073559;28;20183;-68
2022/08/14 08:52:51;;;;;;;8.10;7.50;;;32.20;36.40;;;;;;5073918;28;20448;-68
2022/08/14 08:55:29;;;;;;;8.23;7.70;;;32.30;35.80;;;;;;5073550;28;20825;-68
2022/08/14 08:57:58;;;;;;;9.23;8.47;;;32.40;36.30;;;;;;5073771;28;20433;-67
2022/08/14 09:00:28;;;;;;;8.47;7.63;;;32.50;35.60;;;;;;5073318;28;21014;-67
2022/08/14 09:02:58;;;;;;;8.33;7.63;;;32.70;35.40;;;;;;5073577;28;20487;-67
2022/08/14 09:05:25;;;;;;;8.47;7.67;;;32.90;34.90;;;;;;5073937;28;20517;-67
2022/08/14 09:07:52;;;;;;;8.93;8.13;;;33.20;35.30;;;;;;5073713;28;20433;-67
2022/08/14 09:10:19;;;;;;;8.37;7.67;;;33.50;34.10;;;;;;5073607;28;20464;-67
2022/08/14 09:12:47;;;;;;;7.77;7.10;;;33.70;34.00;;;;;;5073734;28;20490;-68
2022/08/14 09:15:14;;;;;;;8.50;7.90;;;34.00;33.00;;;;;;5073544;28;20448;-68
2022/08/14 09:17:42;;;;;;;8.07;7.47;;;34.30;32.50;;;;;;5073663;28;20443;-68
2022/08/14 09:20:10;;;;;;;8.33;7.63;;;34.60;32.00;;;;;;5073330;28;20514;-66
2022/08/14 09:22:38;;;;;;;8.23;7.53;;;34.80;31.00;;;;;;5073229;28;20819;-67
2022/08/14 09:25:06;;;;;;;8.03;7.53;;;35.00;30.50;;;;;;5073318;28;20944;-67
2022/08/14 09:27:33;;;;;;;8.27;7.77;;;35.30;30.60;;;;;;5073569;28;20452;-67
2022/08/14 09:30:01;;;;;;;7.07;6.60;;;35.50;30.00;;;;;;5073377;28;20807;-67
2022/08/14 09:32:38;;;;;;;7.50;7.00;;;35.70;29.70;;;;;;5073668;28;20452;-67
2022/08/14 09:35:16;;;;;;;8.30;7.50;;;35.90;29.50;;;;;;5073351;28;20420;-67
2022/08/14 09:37:54;;;;;;;7.93;7.23;;;36.10;29.10;;;;;;5073436;28;20420;-67
2022/08/14 09:40:32;;;;;;;7.63;6.90;;;36.40;28.80;;;;;;5073266;28;20475;-67
2022/08/14 09:43:11;;;;;;;6.87;6.43;;;36.50;28.30;;;;;;5073447;28;20436;-67
2022/08/14 09:45:48;;;;;;;7.07;6.50;;;36.80;27.80;;;;;;5073395;28;20440;-67
2022/08/14 09:48:16;;;;;;;7.57;6.80;;;37.00;27.40;;;;;;5073780;28;20427;-67
2022/08/14 09:50:48;;;;;;;6.87;6.37;;;37.20;27.40;;;;;;5073806;28;20468;-66
2022/08/14 09:53:17;;;;;;;6.73;6.27;;;37.50;26.80;;;;;;5075667;28;20432;-68
2022/08/14 09:55:45;;;;;;;7.23;6.63;;;37.60;25.70;;;;;;5073107;28;20602;-67
2022/08/14 09:58:13;;;;;;;7.33;6.83;;;37.60;25.60;;;;;;5073338;28;20437;-68
2022/08/14 10:00:47;;;;;;;9.97;6.20;;;37.60;26.20;;;;;;5076890;28;20244;-67
2022/08/14 10:03:25;;;;;;;6.60;6.00;;;37.80;26.80;;;;;;5079914;28;20462;-71
2022/08/14 10:06:04;;;;;;;6.60;6.20;;;38.10;25.20;;;;;;5079961;28;20280;-71
2022/08/14 10:08:41;;;;;;;6.13;5.73;;;38.40;25.80;;;;;;5079854;28;20191;-69
2022/08/14 10:11:18;;;;;;;5.73;5.33;;;38.70;25.20;;;;;;5080193;28;20218;-70
2022/08/14 10:13:50;;;;;;;6.22;5.63;;;38.90;23.70;;;;;;5080856;28;20190;-72
2022/08/14 10:16:18;;;;;;;5.70;5.30;;;39.20;24.00;;;;;;5077681;28;20529;-72
2022/08/14 10:18:49;;;;;;;5.30;4.90;;;39.50;23.90;;;;;;5080983;28;20576;-72
2022/08/14 10:21:17;;;;;;;5.50;4.78;;;39.90;23.30;;;;;;5079327;28;20316;-70
2022/08/14 10:23:48;;;;;;;7.90;5.00;;;40.30;22.70;;;;;;5079849;28;20255;-70
2022/08/14 10:26:17;;;;;;;5.00;4.60;;;40.70;21.50;;;;;;5077346;28;20186;-67
2022/08/14 10:28:48;;;;;;;4.90;4.60;;;41.10;21.30;;;;;;5076797;28;20244;-66
2022/08/14 10:31:23;;;;;;;7.50;4.78;;;41.50;22.00;;;;;;5076379;28;20708;-68
2022/08/14 10:34:02;;;;;;;5.20;4.70;;;42.00;20.90;;;;;;5076647;28;20194;-67
2022/08/14 10:36:31;;;;;;;5.22;4.82;;;42.50;20.00;;;;;;5076590;28;20186;-67
2022/08/14 10:39:00;;;;;;;5.60;5.15;;;43.00;20.70;;;;;;5076665;28;20212;-67
2022/08/14 10:41:41;;;;;;;6.10;4.65;;;43.60;20.50;;;;;;5076510;28;20233;-67
2022/08/14 10:44:13;;;;;;;5.03;4.32;;;44.10;20.10;;;;;;5076445;28;20216;-67
2022/08/14 10:46:44;;;;;;;4.70;4.30;;;44.60;19.40;;;;;;5076401;28;20212;-67
2022/08/14 10:49:22;;;;;;;4.78;4.38;;;45.00;18.60;;;;;;5076438;28;20210;-68
2022/08/14 10:52:05;;;;;;;4.30;4.10;;;45.50;17.80;;;;;;5076236;28;20608;-67
2022/08/14 10:54:40;;;;;;;5.00;4.55;;;46.00;17.10;;;;;;5076177;28;20186;-67
2022/08/14 10:57:18;;;;;;;4.60;4.25;;;46.50;17.00;;;;;;5075808;28;20641;-68
2022/08/14 10:59:48;;;;;;;4.93;4.43;;;47.00;16.90;;;;;;5076201;28;20278;-67
2022/08/14 11:02:21;;;;;;;4.60;4.30;;;47.40;16.30;;;;;;5075961;28;20252;-67
2022/08/14 11:04:59;;;;;;;5.88;4.15;;;47.70;16.10;;;;;;5075773;28;20213;-68
2022/08/14 11:07:26;;;;;;;4.15;3.88;;;48.10;15.40;;;;;;5075972;28;20197;-67
2022/08/14 11:09:54;;;;;;;4.18;3.80;;;48.30;14.70;;;;;;5076125;28;20187;-68
2022/08/14 11:12:21;;;;;;;3.38;3.08;;;48.60;14.70;;;;;;5074931;28;20230;-68
2022/08/14 11:14:52;;;;;;;3.20;3.00;;;48.70;13.90;;;;;;5075899;28;20201;-68
2022/08/14 11:17:20;;;;;;;3.63;3.20;;;48.90;14.20;;;;;;5075881;28;20202;-73
2022/08/14 11:19:49;;;;;;;3.60;3.30;;;49.20;14.00;;;;;;5076116;28;20185;-73
2022/08/14 11:22:18;;;;;;;3.70;3.33;;;49.60;13.80;;;;;;5077848;28;20598;-68
2022/08/14 11:24:46;;;;;;;5.65;3.25;;;49.80;12.90;;;;;;5075813;28;20190;-68
2022/08/14 11:27:16;;;;;;;2.75;2.65;;;50.00;13.00;;;;;;5075664;28;20206;-68
2022/08/14 11:29:44;;;;;;;3.22;3.03;;;50.10;12.70;;;;;;5075618;28;20193;-68
2022/08/14 11:32:12;;;;;;;3.25;2.88;;;50.10;11.60;;;;;;5075715;28;20232;-68
2022/08/14 11:34:40;;;;;;;3.13;2.78;;;50.20;12.70;;;;;;5075454;28;20209;-68
2022/08/14 11:37:10;;;;;;;2.95;2.75;;;50.10;11.00;;;;;;5075399;28;20251;-68
2022/08/14 11:39:37;;;;;;;3.33;2.88;;;50.00;12.00;;;;;;5075464;28;20198;-68
2022/08/14 11:42:05;;;;;;;3.50;3.30;;;50.00;11.50;;;;;;5075401;28;20636;-68
2022/08/14 11:44:32;;;;;;;3.17;2.97;;;50.20;11.90;;;;;;5075492;28;20198;-68
2022/08/14 11:47:00;;;;;;;3.15;2.85;;;50.50;12.10;;;;;;5075316;28;20182;-68
2022/08/14 11:49:29;;;;;;;4.32;3.78;;;50.70;12.30;;;;;;5075241;28;20233;-68
2022/08/14 11:51:57;;;;;;;3.42;3.13;;;50.90;11.70;;;;;;5075017;28;20229;-68
2022/08/14 11:54:25;;;;;;;4.07;3.78;;;51.00;12.00;;;;;;5075255;28;20192;-68
2022/08/14 11:56:51;;;;;;;4.47;3.40;;;51.00;11.30;;;;;;5075696;28;20235;-69
2022/08/14 11:59:21;;;;;;;3.85;2.58;;;51.00;11.00;;;;;;5075155;28;20190;-68
2022/08/14 12:01:48;;;;;;;3.35;3.15;;;50.80;10.80;;;;;;5074856;28;20230;-68
2022/08/14 12:04:17;;;;;;;3.25;3.05;;;50.70;11.10;;;;;;5074684;28;20234;-68
2022/08/14 12:06:47;;;;;;;2.67;2.58;;;50.60;10.40;;;;;;5074921;28;20251;-68
2022/08/14 12:09:28;;;;;;;3.15;2.95;;;50.30;11.70;;;;;;5074974;28;20289;-68
2022/08/14 12:11:55;;;;;;;3.15;2.95;;;50.10;10.70;;;;;;5074343;28;20626;-69
2022/08/14 12:14:22;;;;;;;3.20;3.00;;;50.00;11.50;;;;;;5074731;28;20206;-69
2022/08/14 12:16:59;;;;;;;4.78;2.70;;;50.10;11.90;;;;;;5074714;28;20206;-69
2022/08/14 12:19:26;;;;;;;4.18;3.30;;;50.20;10.70;;;;;;5074715;28;20194;-68
2022/08/14 12:21:53;;;;;;;2.78;2.58;;;50.30;10.90;;;;;;5074340;28;20261;-68
2022/08/14 12:24:28;;;;;;;2.92;2.72;;;50.50;11.30;;;;;;5074583;28;20208;-68
2022/08/14 12:26:55;;;;;;;3.08;2.78;;;50.90;11.30;;;;;;5074568;28;20197;-68
2022/08/14 12:29:23;;;;;;;3.10;2.90;;;51.40;10.30;;;;;;5074482;28;20210;-69
2022/08/14 12:31:59;;;;;;;2.80;2.60;;;51.60;10.30;;;;;;5074368;28;20228;-69
2022/08/14 12:34:31;;;;;;;3.15;2.95;;;51.90;10.30;;;;;;5074521;28;20190;-69
2022/08/14 12:37:05;;;;;;;3.95;2.83;;;52.10;9.90;;;;;;5074152;28;20193;-68
2022/08/14 12:39:34;;;;;;;2.97;2.83;;;52.30;10.10;;;;;;5073980;28;20660;-68
2022/08/14 12:42:05;;;;;;;3.10;2.90;;;52.60;9.50;;;;;;5074274;28;20245;-68
2022/08/14 12:44:34;;;;;;;3.38;2.35;;;52.80;9.50;;;;;;5074064;28;20217;-69
2022/08/14 12:47:05;;;;;;;2.45;2.30;;;53.00;9.50;;;;;;5073959;28;20209;-69
2022/08/14 12:49:32;;;;;;;2.67;2.53;;;53.00;9.20;;;;;;5074342;28;20197;-69
2022/08/14 12:52:02;;;;;;;3.53;3.03;;;52.80;8.70;;;;;;5074136;28;20214;-69
2022/08/14 12:54:29;;;;;;;3.58;2.75;;;52.60;8.90;;;;;;5074071;28;20190;-68
2022/08/14 12:57:09;;;;;;;2.30;2.20;;;51.90;8.80;;;;;;5074062;28;20215;-68
2022/08/14 12:59:37;;;;;;;3.13;2.60;;;51.60;9.60;;;;;;5073998;28;20182;-68
2022/08/14 13:02:04;;;;;;;3.28;3.03;;;51.30;9.10;;;;;;5073790;28;20617;-68
2022/08/14 13:04:31;;;;;;;2.65;2.50;;;51.00;9.60;;;;;;5073572;28;20210;-71
2022/08/14 13:07:06;;;;;;;2.70;2.50;;;51.00;9.70;;;;;;5073777;28;20194;-70
2022/08/14 13:09:33;;;;;;;3.33;2.75;;;51.30;9.80;;;;;;5074054;28;20190;-69
2022/08/14 13:12:03;;;;;;;2.88;2.70;;;51.90;9.50;;;;;;5074191;28;20229;-73